createdAt,value
2018-04-06T00:02:04.636Z,78.70
2018-04-06T00:04:32.169Z,78.60
2018-04-06T00:06:59.719Z,78.30
2018-04-06T00:09:28.340Z,78.20
2018-04-06T00:11:55.885Z,78.10
2018-04-06T00:14:23.443Z,78.20
2018-04-06T00:16:51.137Z,78.40
2018-04-06T00:19:18.700Z,78.70
2018-04-06T00:21:46.228Z,78.60
2018-04-06T00:24:13.812Z,78.80
2018-04-06T00:26:41.385Z,78.50
2018-04-06T00:29:08.948Z,78.40
2018-04-06T00:31:36.482Z,78.10
2018-04-06T00:34:04.073Z,77.00
2018-04-06T00:36:31.605Z,77.50
2018-04-06T00:38:59.181Z,76.80
2018-04-06T00:41:26.880Z,76.70
2018-04-06T00:43:54.637Z,75.80
2018-04-06T00:46:22.944Z,76.60
2018-04-06T00:48:50.552Z,76.40
2018-04-06T00:51:18.082Z,76.30
2018-04-06T00:53:48.322Z,76.40
2018-04-06T00:56:15.860Z,76.40
2018-04-06T00:58:43.428Z,76.40
2018-04-06T01:01:10.973Z,76.40
2018-04-06T01:03:38.508Z,76.30
2018-04-06T01:06:06.388Z,76.30
2018-04-06T01:08:33.928Z,76.70
2018-04-06T01:11:01.477Z,77.00
2018-04-06T01:13:29.206Z,76.40
2018-04-06T01:15:56.785Z,77.10
2018-04-06T01:18:24.340Z,77.30
2018-04-06T01:20:53.157Z,77.80
2018-04-06T01:23:20.933Z,77.60
2018-04-06T01:25:48.500Z,77.40
2018-04-06T01:28:16.029Z,77.50
2018-04-06T01:30:44.340Z,78.10
2018-04-06T01:33:12.065Z,78.10
2018-04-06T01:35:39.683Z,77.90
2018-04-06T01:38:07.342Z,78.80
2018-04-06T01:40:34.878Z,78.20
2018-04-06T01:43:02.447Z,78.30
2018-04-06T01:45:29.984Z,78.80
2018-04-06T01:47:57.540Z,78.90
2018-04-06T01:50:25.835Z,79.10
2018-04-06T01:52:53.415Z,79.10
2018-04-06T01:55:20.977Z,79.40
2018-04-06T01:57:48.676Z,79.30
2018-04-06T02:00:17.712Z,79.20
2018-04-06T02:02:45.342Z,79.20
2018-04-06T02:05:13.648Z,79.50
2018-04-06T02:07:41.229Z,79.50
2018-04-06T02:10:08.785Z,79.30
2018-04-06T02:12:36.353Z,80.10
2018-04-06T02:15:03.872Z,79.80
2018-04-06T02:17:31.450Z,79.80
2018-04-06T02:19:59.091Z,79.70
2018-04-06T02:22:26.665Z,79.70
2018-04-06T02:24:54.251Z,79.70
2018-04-06T02:27:21.756Z,79.70
2018-04-06T02:29:50.248Z,79.60
2018-04-06T02:32:18.547Z,79.60
2018-04-06T02:34:46.117Z,79.50
2018-04-06T02:37:13.650Z,79.50
2018-04-06T02:39:41.225Z,79.50
2018-04-06T02:42:08.789Z,80.10
2018-04-06T02:44:36.364Z,79.40
2018-04-06T02:47:03.898Z,79.70
2018-04-06T02:49:31.655Z,79.70
2018-04-06T02:51:59.194Z,79.50
2018-04-06T02:54:27.521Z,79.40
2018-04-06T02:56:55.083Z,79.40
2018-04-06T02:59:22.797Z,79.50
2018-04-06T03:01:51.103Z,79.70
2018-04-06T03:04:18.684Z,79.70
2018-04-06T03:06:46.220Z,79.60
2018-04-06T03:09:13.795Z,79.90
2018-04-06T03:11:41.372Z,79.80
2018-04-06T03:14:08.941Z,79.90
2018-04-06T03:16:36.543Z,79.80
2018-04-06T03:19:04.257Z,79.90
2018-04-06T03:21:31.825Z,79.80
2018-04-06T03:23:59.361Z,79.90
2018-04-06T03:26:26.934Z,79.80
2018-04-06T03:28:54.463Z,80.00
2018-04-06T03:31:22.007Z,80.00
2018-04-06T03:33:49.545Z,80.60
2018-04-06T03:36:17.094Z,80.00
2018-04-06T03:38:44.645Z,80.00
2018-04-06T03:41:13.792Z,80.50
2018-04-06T03:43:41.350Z,80.50
2018-04-06T03:46:08.910Z,80.90
2018-04-06T03:48:36.490Z,80.30
2018-04-06T03:51:04.043Z,80.30
2018-04-06T03:53:31.570Z,80.00
2018-04-06T03:55:59.182Z,80.40
2018-04-06T03:58:26.812Z,80.30
2018-04-06T04:00:54.553Z,80.20
2018-04-06T04:03:22.728Z,80.40
2018-04-06T04:05:50.429Z,80.80
2018-04-06T04:08:17.962Z,80.50
2018-04-06T04:10:45.517Z,80.10
2018-04-06T04:13:13.198Z,80.50
2018-04-06T04:15:40.768Z,80.60
2018-04-06T04:18:08.300Z,80.60
2018-04-06T04:20:35.874Z,80.50
2018-04-06T04:23:03.414Z,80.60
2018-04-06T04:25:30.940Z,80.70
2018-04-06T04:27:58.539Z,80.70
2018-04-06T04:30:26.032Z,80.70
2018-04-06T04:32:53.610Z,80.60
2018-04-06T04:35:21.432Z,80.70
2018-04-06T04:37:48.990Z,80.80
2018-04-06T04:40:16.734Z,80.90
2018-04-06T04:42:44.390Z,80.80
2018-04-06T04:45:12.692Z,80.80
2018-04-06T04:47:40.251Z,80.90
2018-04-06T04:50:07.752Z,80.90
2018-04-06T04:52:35.330Z,80.80
2018-04-06T04:55:02.860Z,80.80
2018-04-06T04:57:30.430Z,80.80
2018-04-06T04:59:58.120Z,80.90
2018-04-06T05:02:25.672Z,80.90
2018-04-06T05:04:53.977Z,80.90
2018-04-06T05:07:21.536Z,80.90
2018-04-06T05:09:49.065Z,80.80
2018-04-06T05:12:17.405Z,80.60
2018-04-06T05:14:44.942Z,80.60
2018-04-06T05:17:12.672Z,80.50
2018-04-06T05:19:40.992Z,79.80
2018-04-06T05:22:08.667Z,79.80
2018-04-06T05:24:36.253Z,79.80
2018-04-06T05:27:03.781Z,80.00
2018-04-06T05:29:31.521Z,80.10
2018-04-06T05:31:59.058Z,80.10
2018-04-06T05:34:27.405Z,79.50
2018-04-06T05:36:56.449Z,79.40
2018-04-06T05:39:24.012Z,79.30
2018-04-06T05:41:51.557Z,78.90
2018-04-06T05:44:19.872Z,78.70
2018-04-06T05:46:47.445Z,78.70
2018-04-06T05:49:15.195Z,78.10
2018-04-06T05:51:42.861Z,78.00
2018-04-06T05:54:10.677Z,77.90
2018-04-06T05:56:38.982Z,77.60
2018-04-06T05:59:06.559Z,77.50
2018-04-06T06:01:34.277Z,77.60
2018-04-06T06:04:02.590Z,76.80
2018-04-06T06:06:30.209Z,76.80
2018-04-06T06:08:58.529Z,76.90
2018-04-06T06:11:26.085Z,76.90
2018-04-06T06:13:53.768Z,77.00
2018-04-06T06:16:21.316Z,77.00
2018-04-06T06:18:48.856Z,76.30
2018-04-06T06:21:16.444Z,76.20
2018-04-06T06:23:44.037Z,76.50
2018-04-06T06:26:12.415Z,75.60
2018-04-06T06:28:39.961Z,75.60
2018-04-06T06:31:07.538Z,75.60
2018-04-06T06:33:35.278Z,75.50
2018-04-06T06:36:02.850Z,75.70
2018-04-06T06:38:30.401Z,75.40
2018-04-06T06:40:57.961Z,75.20
2018-04-06T06:43:25.501Z,74.80
2018-04-06T06:45:53.036Z,75.30
2018-04-06T06:48:20.653Z,74.60
2018-04-06T06:50:48.187Z,74.50
2018-04-06T06:53:16.030Z,74.90
2018-04-06T06:55:43.601Z,74.50
2018-04-06T06:58:11.162Z,74.50
2018-04-06T07:00:38.704Z,73.90
2018-04-06T07:03:06.386Z,74.10
2018-04-06T07:05:33.924Z,73.80
2018-04-06T07:08:01.479Z,73.60
2018-04-06T07:10:29.014Z,73.40
2018-04-06T07:12:57.353Z,73.50
2018-04-06T07:15:24.950Z,73.50
2018-04-06T07:17:53.297Z,73.60
2018-04-06T07:20:20.841Z,73.60
2018-04-06T07:22:48.473Z,73.60
2018-04-06T07:25:16.017Z,73.70
2018-04-06T07:27:43.557Z,73.10
2018-04-06T07:30:11.317Z,71.80
2018-04-06T07:32:39.681Z,71.30
2018-04-06T07:35:08.751Z,71.40
2018-04-06T07:37:36.282Z,71.40
2018-04-06T07:40:05.198Z,71.40
2018-04-06T07:42:32.738Z,71.70
2018-04-06T07:45:00.305Z,71.40
2018-04-06T07:47:27.925Z,71.00
2018-04-06T07:49:55.481Z,71.00
2018-04-06T07:52:23.799Z,70.10
2018-04-06T07:54:51.363Z,70.20
2018-04-06T07:57:18.905Z,69.80
2018-04-06T07:59:46.485Z,70.10
2018-04-06T08:02:14.005Z,70.00
2018-04-06T08:04:42.327Z,68.90
2018-04-06T08:07:09.881Z,68.80
2018-04-06T08:09:37.505Z,68.60
2018-04-06T08:12:05.052Z,67.60
2018-04-06T08:14:33.370Z,67.90
2018-04-06T08:17:00.974Z,67.90
2018-04-06T08:19:28.516Z,67.70
2018-04-06T08:21:56.105Z,67.00
2018-04-06T08:24:24.410Z,66.40
2018-04-06T08:26:52.097Z,67.00
2018-04-06T08:29:19.637Z,66.20
2018-04-06T08:31:47.201Z,65.50
2018-04-06T08:34:14.750Z,66.30
2018-04-06T08:36:42.298Z,65.50
2018-04-06T08:39:10.611Z,65.60
2018-04-06T08:41:38.177Z,65.60
2018-04-06T08:44:05.730Z,64.90
2018-04-06T08:46:33.309Z,65.80
2018-04-06T08:49:00.863Z,65.70
2018-04-06T08:51:28.418Z,65.20
2018-04-06T08:53:55.971Z,65.30
2018-04-06T08:56:23.593Z,64.70
2018-04-06T08:58:51.906Z,63.70
2018-04-06T09:01:19.616Z,63.70
2018-04-06T09:03:47.277Z,64.20
2018-04-06T09:06:14.833Z,64.20
2018-04-06T09:08:43.180Z,64.90
2018-04-06T09:11:10.855Z,64.30
2018-04-06T09:13:38.421Z,64.00
2018-04-06T09:16:05.966Z,63.80
2018-04-06T09:18:33.554Z,61.90
2018-04-06T09:21:01.902Z,63.40
2018-04-06T09:23:29.914Z,63.30
2018-04-06T09:25:58.528Z,62.30
2018-04-06T09:28:26.097Z,62.20
2018-04-06T09:30:53.677Z,60.90
2018-04-06T09:33:21.229Z,61.10
2018-04-06T09:35:48.773Z,60.20
2018-04-06T09:38:16.345Z,60.60
2018-04-06T09:40:43.888Z,60.50
2018-04-06T09:43:11.455Z,60.20
2018-04-06T09:45:39.043Z,60.00
2018-04-06T09:48:06.696Z,59.00
2018-04-06T09:50:34.953Z,58.90
2018-04-06T09:53:03.776Z,58.60
2018-04-06T09:55:32.743Z,57.10
2018-04-06T09:58:00.322Z,58.40
2018-04-06T10:00:32.803Z,57.20
2018-04-06T10:03:02.983Z,57.10
2018-04-06T10:05:31.455Z,57.20
2018-04-06T10:07:59.065Z,57.10
2018-04-06T10:10:26.683Z,57.10
2018-04-06T10:12:55.583Z,57.00
2018-04-06T10:15:23.895Z,57.10
2018-04-06T10:17:51.457Z,57.20
2018-04-06T10:20:19.078Z,56.60
2018-04-06T10:22:47.182Z,56.60
2018-04-06T10:25:14.756Z,57.10
2018-04-06T10:27:42.289Z,57.20
2018-04-06T10:30:10.129Z,57.20
2018-04-06T10:32:37.669Z,57.20
2018-04-06T10:35:05.282Z,56.70
2018-04-06T10:37:32.933Z,56.10
2018-04-06T10:40:00.508Z,57.20
2018-04-06T10:42:28.156Z,55.40
2018-04-06T10:44:55.841Z,55.60
2018-04-06T10:47:24.160Z,53.10
2018-04-06T10:49:51.724Z,52.70
2018-04-06T10:52:19.258Z,53.10
2018-04-06T10:54:47.596Z,53.40
2018-04-06T10:57:15.213Z,53.40
2018-04-06T10:59:42.816Z,54.10
2018-04-06T11:02:10.366Z,52.20
2018-04-06T11:04:38.388Z,52.20
2018-04-06T11:07:06.709Z,54.20
2018-04-06T11:09:34.460Z,54.20
2018-04-06T11:12:02.030Z,54.10
2018-04-06T11:14:29.560Z,54.60
2018-04-06T11:16:57.201Z,54.30
2018-04-06T11:19:25.037Z,52.60
2018-04-06T11:21:52.606Z,54.00
2018-04-06T11:24:20.150Z,54.40
2018-04-06T11:26:47.736Z,53.60
2018-04-06T11:29:17.031Z,54.40
2018-04-06T11:31:44.588Z,52.10
2018-04-06T11:34:12.117Z,51.80
2018-04-06T11:36:39.670Z,51.80
2018-04-06T11:39:07.230Z,53.30
2018-04-06T11:41:34.814Z,53.80
2018-04-06T11:44:02.369Z,54.40
2018-04-06T11:46:30.731Z,54.60
2018-04-06T11:48:58.428Z,55.20
2018-04-06T11:51:26.348Z,56.40
2018-04-06T11:53:54.193Z,54.20
2018-04-06T11:56:21.758Z,54.40
2018-04-06T11:58:49.551Z,58.70
2018-04-06T12:01:17.122Z,54.10
2018-04-06T12:03:44.684Z,53.80
2018-04-06T12:06:12.249Z,52.00
2018-04-06T12:08:39.842Z,56.00
2018-04-06T12:11:08.150Z,55.90
2018-04-06T12:13:35.725Z,55.90
2018-04-06T12:16:03.273Z,53.50
2018-04-06T12:18:30.840Z,55.80
2018-04-06T12:20:58.376Z,55.80
2018-04-06T12:23:25.963Z,56.30
2018-04-06T12:25:53.501Z,56.60
2018-04-06T12:28:22.253Z,57.10
2018-04-06T12:30:49.800Z,56.10
2018-04-06T12:33:17.402Z,58.90
2018-04-06T12:35:44.949Z,55.80
2018-04-06T12:38:13.301Z,56.00
2018-04-06T12:40:40.829Z,56.10
2018-04-06T12:43:08.452Z,55.30
2018-04-06T12:45:36.520Z,56.30
2018-04-06T12:48:04.298Z,55.20
2018-04-06T12:50:31.858Z,55.20
2018-04-06T12:52:59.506Z,55.20
2018-04-06T12:55:27.143Z,55.20
2018-04-06T12:57:54.760Z,56.10
2018-04-06T13:00:22.329Z,55.20
2018-04-06T13:02:49.883Z,55.20
2018-04-06T13:05:18.134Z,55.20
2018-04-06T13:07:47.223Z,55.20
2018-04-06T13:10:16.936Z,56.50
2018-04-06T13:12:45.843Z,56.00
2018-04-06T13:15:13.472Z,55.20
2018-04-06T13:17:41.790Z,53.30
2018-04-06T13:20:09.350Z,53.20
2018-04-06T13:22:37.209Z,51.80
2018-04-06T13:25:05.756Z,53.50
2018-04-06T13:27:34.245Z,49.90
2018-04-06T13:30:02.580Z,47.60
2018-04-06T13:32:31.014Z,47.40
2018-04-06T13:34:58.663Z,47.90
2018-04-06T13:37:27.093Z,45.60
2018-04-06T13:39:56.153Z,45.70
2018-04-06T13:42:23.734Z,45.80
2018-04-06T13:44:52.849Z,44.00
2018-04-06T13:47:20.793Z,44.50
2018-04-06T13:49:48.527Z,41.20
2018-04-06T13:52:16.902Z,39.70
2018-04-06T13:54:44.561Z,39.90
2018-04-06T13:57:12.128Z,39.80
2018-04-06T13:59:40.453Z,39.00
2018-04-06T14:02:08.656Z,39.10
2018-04-06T14:04:36.475Z,37.70
2018-04-06T14:07:04.022Z,37.60
2018-04-06T14:09:31.564Z,37.90
2018-04-06T14:11:59.408Z,36.00
2018-04-06T14:14:27.202Z,36.20
2018-04-06T14:16:54.789Z,36.50
2018-04-06T14:19:22.326Z,36.20
2018-04-06T14:21:49.889Z,31.70
2018-04-06T14:24:17.605Z,33.00
2018-04-06T14:26:45.169Z,32.80
2018-04-06T14:29:12.739Z,34.20
2018-04-06T14:31:40.310Z,32.10
2018-04-06T14:34:07.851Z,34.20
2018-04-06T14:36:35.442Z,33.30
2018-04-06T14:39:03.003Z,35.60
2018-04-06T14:41:30.574Z,33.40
2018-04-06T14:43:58.137Z,33.80
2018-04-06T14:46:25.701Z,33.60
2018-04-06T14:48:53.378Z,34.50
2018-04-06T14:51:20.965Z,34.10
2018-04-06T14:53:48.608Z,34.30
2018-04-06T14:56:16.970Z,37.20
2018-04-06T14:58:44.549Z,37.10
2018-04-06T15:01:12.098Z,37.30
2018-04-06T15:03:39.743Z,38.20
2018-04-06T15:06:07.277Z,37.20
2018-04-06T15:08:35.623Z,36.50
2018-04-06T15:11:03.165Z,36.60
2018-04-06T15:13:30.883Z,39.20
2018-04-06T15:15:58.540Z,39.20
2018-04-06T15:18:26.900Z,39.20
2018-04-06T15:20:54.811Z,39.20
2018-04-06T15:23:22.548Z,38.60
2018-04-06T15:25:50.109Z,38.40
2018-04-06T15:28:17.713Z,38.00
2018-04-06T15:30:45.256Z,38.90
2018-04-06T15:33:12.887Z,36.80
2018-04-06T15:35:40.444Z,37.70
2018-04-06T15:38:08.789Z,37.60
2018-04-06T15:40:37.289Z,37.60
2018-04-06T15:43:04.856Z,38.40
2018-04-06T15:45:36.109Z,38.10
2018-04-06T15:48:03.710Z,38.10
2018-04-06T15:50:31.262Z,39.30
2018-04-06T15:52:58.798Z,39.70
2018-04-06T15:55:26.337Z,39.30
2018-04-06T15:57:53.893Z,40.30
2018-04-06T16:00:22.266Z,39.30
2018-04-06T16:02:50.469Z,39.40
2018-04-06T16:05:18.574Z,38.40
2018-04-06T16:07:46.172Z,40.60
2018-04-06T16:10:14.872Z,43.40
2018-04-06T16:12:43.211Z,42.20
2018-04-06T16:15:10.792Z,42.20
2018-04-06T16:17:38.518Z,42.30
2018-04-06T16:20:06.069Z,43.90
2018-04-06T16:22:33.637Z,44.00
2018-04-06T16:25:01.187Z,43.90
2018-04-06T16:27:28.824Z,43.90
2018-04-06T16:29:56.375Z,43.70
2018-04-06T16:32:24.701Z,43.60
2018-04-06T16:34:52.373Z,43.60
2018-04-06T16:37:19.942Z,43.40
2018-04-06T16:39:47.525Z,43.50
2018-04-06T16:42:15.149Z,44.80
2018-04-06T16:44:42.687Z,44.70
2018-04-06T16:47:10.260Z,43.80
2018-04-06T16:49:37.844Z,44.20
2018-04-06T16:52:06.131Z,43.10
2018-04-06T16:54:37.222Z,43.10
2018-04-06T16:57:04.837Z,43.90
2018-04-06T16:59:32.393Z,43.00
2018-04-06T17:02:01.449Z,42.90
2018-04-06T17:04:29.019Z,42.90
2018-04-06T17:06:56.577Z,43.50
2018-04-06T17:09:24.159Z,42.80
2018-04-06T17:11:51.710Z,42.70
2018-04-06T17:14:19.453Z,42.70
2018-04-06T17:16:47.178Z,42.70
2018-04-06T17:19:15.536Z,44.70
2018-04-06T17:21:43.113Z,44.70
2018-04-06T17:24:11.444Z,43.30
2018-04-06T17:26:39.032Z,43.30
2018-04-06T17:29:06.578Z,43.30
2018-04-06T17:31:34.162Z,43.30
2018-04-06T17:34:02.730Z,43.20
2018-04-06T17:36:30.307Z,43.30
2018-04-06T17:38:58.667Z,44.40
2018-04-06T17:41:26.286Z,44.40
2018-04-06T17:43:53.839Z,43.60
2018-04-06T17:46:21.399Z,44.20
2018-04-06T17:48:48.938Z,46.30
2018-04-06T17:51:16.496Z,46.30
2018-04-06T17:53:44.810Z,46.20
2018-04-06T17:56:12.429Z,46.30
2018-04-06T17:58:40.754Z,46.90
2018-04-06T18:01:08.352Z,47.00
2018-04-06T18:03:36.685Z,48.40
2018-04-06T18:06:04.250Z,48.40
2018-04-06T18:08:31.820Z,48.40
2018-04-06T18:10:59.418Z,48.40
2018-04-06T18:13:27.735Z,48.70
2018-04-06T18:15:55.326Z,48.80
2018-04-06T18:18:22.899Z,48.20
2018-04-06T18:20:51.270Z,48.10
2018-04-06T18:23:18.892Z,48.10
2018-04-06T18:25:46.469Z,49.40
2018-04-06T18:28:14.059Z,49.40
2018-04-06T18:30:41.617Z,49.50
2018-04-06T18:33:09.196Z,49.80
2018-04-06T18:35:37.508Z,49.70
2018-04-06T18:38:05.079Z,49.80
2018-04-06T18:40:32.626Z,49.90
2018-04-06T18:43:00.399Z,50.20
2018-04-06T18:45:27.961Z,50.20
2018-04-06T18:47:55.554Z,49.80
2018-04-06T18:50:23.104Z,51.30
2018-04-06T18:52:50.702Z,52.20
2018-04-06T18:55:19.233Z,51.30
2018-04-06T18:57:46.837Z,51.30
2018-04-06T19:00:15.161Z,50.40
2018-04-06T19:02:42.806Z,50.40
2018-04-06T19:05:10.374Z,50.20
2018-04-06T19:07:38.032Z,50.80
2018-04-06T19:10:05.622Z,51.00
2018-04-06T19:12:33.298Z,51.30
2018-04-06T19:15:01.030Z,51.10
2018-04-06T19:17:28.589Z,51.20
2018-04-06T19:19:56.413Z,51.70
2018-04-06T19:22:24.729Z,51.90
2018-04-06T19:24:52.302Z,51.90
2018-04-06T19:27:19.893Z,52.10
2018-04-06T19:29:47.709Z,51.70
2018-04-06T19:32:15.266Z,52.00
2018-04-06T19:34:42.849Z,51.30
2018-04-06T19:37:10.429Z,51.50
2018-04-06T19:39:38.003Z,51.00
2018-04-06T19:42:05.612Z,50.80
2018-04-06T19:44:33.175Z,50.50
2018-04-06T19:47:00.737Z,50.60
2018-04-06T19:49:28.351Z,51.20
2018-04-06T19:51:55.924Z,51.40
2018-04-06T19:54:23.515Z,52.60
2018-04-06T19:56:51.076Z,52.50
2018-04-06T19:59:18.663Z,52.80
2018-04-06T20:01:46.272Z,53.20
2018-04-06T20:04:13.849Z,53.70
2018-04-06T20:06:41.591Z,53.70
2018-04-06T20:09:09.191Z,53.20
2018-04-06T20:11:36.768Z,53.50
2018-04-06T20:14:04.361Z,53.50
2018-04-06T20:16:33.058Z,54.50
2018-04-06T20:19:00.598Z,54.50
2018-04-06T20:21:28.217Z,53.80
2018-04-06T20:23:55.768Z,54.10
2018-04-06T20:26:23.314Z,54.00
2018-04-06T20:28:50.875Z,53.10
2018-04-06T20:31:18.474Z,52.90
2018-04-06T20:33:46.062Z,53.50
2018-04-06T20:36:14.442Z,53.50
2018-04-06T20:38:41.981Z,53.50
2018-04-06T20:41:09.572Z,52.60
2018-04-06T20:43:37.281Z,53.30
2018-04-06T20:46:04.858Z,52.80
2018-04-06T20:48:32.403Z,53.50
2018-04-06T20:50:59.953Z,54.10
2018-04-06T20:53:27.510Z,53.00
2018-04-06T20:55:55.061Z,54.00
2018-04-06T20:58:22.621Z,54.60
2018-04-06T21:00:50.170Z,53.90
2018-04-06T21:03:18.002Z,53.90
2018-04-06T21:05:46.298Z,53.80
2018-04-06T21:08:13.936Z,53.80
2018-04-06T21:10:42.560Z,53.90
2018-04-06T21:13:10.134Z,53.90
2018-04-06T21:15:37.685Z,53.70
2018-04-06T21:18:05.379Z,54.40
2018-04-06T21:20:32.947Z,54.20
2018-04-06T21:23:01.432Z,55.10
2018-04-06T21:25:28.993Z,55.10
2018-04-06T21:27:56.568Z,55.60
2018-04-06T21:30:24.898Z,56.10
2018-04-06T21:32:52.509Z,56.00
2018-04-06T21:35:20.050Z,55.20
2018-04-06T21:37:48.405Z,55.30
2018-04-06T21:40:15.932Z,55.20
2018-04-06T21:42:43.505Z,55.50
2018-04-06T21:45:11.041Z,54.60
2018-04-06T21:47:38.593Z,54.50
2018-04-06T21:50:06.132Z,54.80
2018-04-06T21:52:33.740Z,54.70
2018-04-06T21:55:01.312Z,55.70
2018-04-06T21:57:28.867Z,56.20
2018-04-06T21:59:56.447Z,56.60
2018-04-06T22:02:24.009Z,57.20
2018-04-06T22:04:53.084Z,57.20
2018-04-06T22:07:20.636Z,57.20
2018-04-06T22:09:48.189Z,57.20
2018-04-06T22:12:15.744Z,57.80
2018-04-06T22:14:43.301Z,58.90
2018-04-06T22:17:10.953Z,57.70
2018-04-06T22:19:38.506Z,58.30
2018-04-06T22:22:06.104Z,58.00
2018-04-06T22:24:33.699Z,58.00
2018-04-06T22:27:01.397Z,58.40
2018-04-06T22:29:28.949Z,59.10
2018-04-06T22:31:56.482Z,59.00
2018-04-06T22:34:24.036Z,59.30
2018-04-06T22:36:52.360Z,59.20
2018-04-06T22:39:20.022Z,59.20
2018-04-06T22:41:47.550Z,59.20
2018-04-06T22:44:15.843Z,59.20
2018-04-06T22:46:43.388Z,59.20
2018-04-06T22:49:10.922Z,60.80
2018-04-06T22:51:38.489Z,61.40
2018-04-06T22:54:06.265Z,61.80
2018-04-06T22:56:34.904Z,61.10
2018-04-06T22:59:02.443Z,61.10
2018-04-06T23:01:30.019Z,61.00
2018-04-06T23:03:57.559Z,60.80
2018-04-06T23:06:25.132Z,60.70
2018-04-06T23:08:52.664Z,60.50
2018-04-06T23:11:20.235Z,60.50
2018-04-06T23:13:47.771Z,60.40
2018-04-06T23:16:16.104Z,61.10
2018-04-06T23:18:43.708Z,61.10
2018-04-06T23:21:12.030Z,61.40
2018-04-06T23:23:39.558Z,61.40
2018-04-06T23:26:07.115Z,61.00
2018-04-06T23:28:35.405Z,61.60
2018-04-06T23:31:02.983Z,61.60
2018-04-06T23:33:30.520Z,61.80
2018-04-06T23:35:58.090Z,61.80
2018-04-06T23:38:25.691Z,61.60
2018-04-06T23:40:53.227Z,62.70
2018-04-06T23:43:21.001Z,63.50
2018-04-06T23:45:48.595Z,63.70
2018-04-06T23:48:16.937Z,64.10
2018-04-06T23:50:44.484Z,64.10
2018-04-06T23:53:12.056Z,64.00
2018-04-06T23:55:39.595Z,63.90
2018-04-06T23:58:07.154Z,65.00
